createdAt,value
2023-02-07T00:01:29.789Z,16.77
2023-02-07T00:03:57.086Z,14.10
2023-02-07T00:06:25.542Z,18.60
2023-02-07T00:08:52.984Z,14.67
2023-02-07T00:11:21.179Z,12.97
2023-02-07T00:13:52.400Z,17.03
2023-02-07T00:16:20.323Z,14.27
2023-02-07T00:18:50.350Z,22.77
2023-02-07T00:21:18.391Z,14.33
2023-02-07T00:23:46.043Z,12.03
2023-02-07T00:26:13.986Z,17.17
2023-02-07T00:28:55.121Z,15.33
2023-02-07T00:31:24.715Z,18.70
2023-02-07T00:33:52.676Z,13.30
2023-02-07T00:36:20.997Z,12.87
2023-02-07T00:38:58.168Z,21.83
2023-02-07T00:41:47.532Z,12.90
2023-02-07T00:44:28.599Z,15.10
2023-02-07T00:46:55.966Z,13.43
2023-02-07T00:49:23.669Z,17.40
2023-02-07T00:51:52.031Z,16.77
2023-02-07T00:54:20.672Z,21.77
2023-02-07T00:56:48.032Z,13.30
2023-02-07T00:59:15.259Z,17.47
2023-02-07T01:01:44.050Z,12.53
2023-02-07T01:04:11.351Z,15.83
2023-02-07T01:06:38.625Z,12.43
2023-02-07T01:09:06.744Z,10.20
2023-02-07T01:11:34.107Z,15.27
2023-02-07T01:16:51.885Z,14.63
2023-02-07T01:19:19.512Z,12.33
2023-02-07T01:21:46.917Z,18.77
2023-02-07T01:24:14.109Z,16.73
2023-02-07T01:26:41.464Z,22.93
2023-02-07T01:32:51.482Z,11.47
2023-02-07T01:35:18.948Z,15.43
2023-02-07T01:37:46.185Z,14.57
2023-02-07T01:40:14.050Z,10.23
2023-02-07T01:42:41.368Z,17.30
2023-02-07T01:45:19.355Z,16.57
2023-02-07T01:47:48.605Z,15.23
2023-02-07T01:50:17.292Z,14.23
2023-02-07T01:52:45.368Z,12.10
2023-02-07T01:55:15.355Z,13.60
2023-02-07T01:57:44.188Z,15.47
2023-02-07T02:00:12.966Z,16.20
2023-02-07T02:05:36.117Z,20.33
2023-02-07T02:08:03.906Z,23.60
2023-02-07T02:10:49.106Z,16.63
2023-02-07T02:13:22.066Z,20.47
2023-02-07T02:15:52.621Z,16.63
2023-02-07T02:25:48.882Z,16.57
2023-02-07T02:28:43.296Z,16.73
2023-02-07T02:31:28.468Z,15.47
2023-02-07T02:33:58.176Z,10.77
2023-02-07T02:36:29.782Z,15.20
2023-02-07T02:39:13.260Z,15.17
2023-02-07T02:41:43.057Z,15.83
2023-02-07T02:44:12.405Z,13.60
2023-02-07T02:46:41.086Z,16.90
2023-02-07T02:49:28.646Z,19.40
2023-02-07T02:52:13.076Z,20.63
2023-02-07T02:54:41.034Z,19.17
2023-02-07T02:57:29.722Z,15.93
2023-02-07T03:00:08.591Z,16.43
2023-02-07T03:02:39.771Z,12.57
2023-02-07T03:05:13.101Z,19.47
2023-02-07T03:08:05.353Z,14.63
2023-02-07T03:10:41.277Z,15.03
2023-02-07T03:13:14.284Z,11.67
2023-02-07T03:15:47.012Z,9.33
2023-02-07T03:18:33.392Z,14.20
2023-02-07T03:21:17.738Z,11.83
2023-02-07T03:23:45.615Z,13.70
2023-02-07T03:26:14.656Z,15.40
2023-02-07T03:28:43.137Z,14.93
2023-02-07T03:31:11.419Z,19.40
2023-02-07T03:33:39.367Z,13.13
2023-02-07T03:36:28.011Z,16.13
2023-02-07T03:38:55.282Z,13.27
2023-02-07T03:41:27.641Z,15.13
2023-02-07T03:43:55.977Z,15.60
2023-02-07T03:49:17.344Z,20.10
2023-02-07T03:51:56.637Z,15.23
2023-02-07T03:54:23.949Z,11.13
2023-02-07T03:56:52.569Z,13.20
2023-02-07T03:59:19.814Z,10.13
2023-02-07T04:01:47.068Z,9.60
2023-02-07T04:04:14.362Z,12.27
2023-02-07T04:09:23.822Z,16.73
2023-02-07T04:11:52.550Z,14.07
2023-02-07T04:14:19.945Z,18.53
2023-02-07T04:20:37.759Z,12.10
2023-02-07T04:23:05.202Z,13.53
2023-02-07T04:25:32.387Z,11.40
2023-02-07T04:28:01.406Z,15.80
2023-02-07T04:30:28.909Z,16.17
2023-02-07T04:32:56.122Z,12.47
2023-02-07T04:38:05.821Z,14.40
2023-02-07T04:40:33.130Z,9.83
2023-02-07T04:43:02.128Z,12.27
2023-02-07T04:45:29.481Z,11.70
2023-02-07T04:47:56.751Z,12.10
2023-02-07T04:50:30.075Z,13.93
2023-02-07T04:56:13.515Z,11.47
2023-02-07T04:58:42.171Z,18.47
2023-02-07T05:01:09.747Z,15.00
2023-02-07T05:03:36.996Z,16.93
2023-02-07T05:06:04.473Z,14.03
2023-02-07T05:08:31.732Z,18.40
2023-02-07T05:11:14.109Z,15.43
2023-02-07T05:13:42.786Z,9.63
2023-02-07T05:16:10.194Z,11.40
2023-02-07T05:18:37.449Z,14.97
2023-02-07T05:24:51.756Z,13.27
2023-02-07T05:27:19.033Z,12.17
2023-02-07T05:29:47.657Z,14.37
2023-02-07T05:32:16.931Z,11.00
2023-02-07T05:34:44.161Z,11.30
2023-02-07T05:37:11.542Z,13.63
2023-02-07T05:42:21.635Z,14.63
2023-02-07T05:44:50.310Z,15.17
2023-02-07T05:47:17.652Z,17.30
2023-02-07T05:49:45.245Z,11.40
2023-02-07T05:52:12.536Z,15.93
2023-02-07T05:54:59.923Z,14.30
2023-02-07T06:01:22.709Z,18.30
2023-02-07T06:03:51.472Z,14.40
2023-02-07T06:06:18.763Z,15.23
2023-02-07T06:08:45.971Z,18.43
2023-02-07T06:11:13.226Z,14.20
2023-02-07T06:13:40.477Z,18.00
2023-02-07T06:16:07.985Z,13.50
2023-02-07T06:18:35.172Z,17.17
2023-02-07T06:21:03.799Z,18.93
2023-02-07T06:23:31.032Z,13.37
2023-02-07T06:25:58.289Z,14.57
2023-02-07T06:28:25.553Z,21.53
2023-02-07T06:30:53.216Z,14.60
2023-02-07T06:33:20.998Z,16.47
2023-02-07T06:35:48.229Z,21.77
2023-02-07T06:38:17.552Z,17.60
2023-02-07T06:40:45.048Z,18.40
2023-02-07T06:43:13.839Z,16.80
2023-02-07T06:45:41.405Z,18.93
2023-02-07T06:48:09.026Z,26.40
2023-02-07T06:50:36.291Z,24.60
2023-02-07T06:53:03.657Z,23.67
2023-02-07T06:55:33.218Z,29.97
2023-02-07T06:58:00.583Z,26.10
2023-02-07T07:00:27.880Z,30.77
2023-02-07T07:02:55.171Z,44.63
2023-02-07T07:05:22.800Z,34.27
2023-02-07T07:07:50.033Z,28.03
2023-02-07T07:10:17.257Z,27.73
2023-02-07T07:12:46.804Z,14.17
2023-02-07T07:15:14.233Z,12.97
2023-02-07T07:17:41.635Z,35.87
2023-02-07T07:20:09.763Z,26.87
2023-02-07T07:22:36.994Z,46.07
2023-02-07T07:25:04.304Z,64.30
2023-02-07T07:27:31.561Z,43.40
2023-02-07T07:32:43.133Z,56.70
2023-02-07T07:35:10.384Z,46.30
2023-02-07T07:37:37.572Z,46.37
2023-02-07T07:40:05.527Z,30.77
2023-02-07T07:42:32.848Z,63.97
2023-02-07T07:49:17.512Z,87.53
2023-02-07T07:51:44.889Z,87.90
2023-02-07T07:54:12.611Z,119.77
2023-02-07T07:56:39.905Z,117.23
2023-02-07T07:59:12.149Z,80.93
2023-02-07T08:01:47.403Z,124.13
2023-02-07T08:06:58.017Z,85.17
2023-02-07T08:09:25.296Z,86.43
2023-02-07T08:11:52.613Z,77.97
2023-02-07T08:14:19.915Z,51.37
2023-02-07T08:16:47.328Z,71.93
2023-02-07T08:26:27.392Z,37.03
2023-02-07T08:28:54.617Z,69.97
2023-02-07T08:31:41.687Z,61.40
2023-02-07T08:34:08.984Z,53.97
2023-02-07T08:36:36.190Z,68.63
2023-02-07T08:39:25.757Z,43.77
2023-02-07T08:41:54.481Z,47.30
2023-02-07T08:44:21.758Z,38.00
2023-02-07T08:46:49.021Z,44.17
2023-02-07T08:53:04.598Z,51.73
2023-02-07T08:55:31.978Z,27.90
2023-02-07T08:58:00.919Z,47.37
2023-02-07T09:00:28.243Z,29.67
2023-02-07T09:02:55.864Z,28.10
2023-02-07T09:05:23.190Z,28.23
2023-02-07T09:10:35.027Z,29.83
2023-02-07T09:13:03.927Z,28.17
2023-02-07T09:15:31.533Z,27.93
2023-02-07T09:17:58.794Z,25.53
2023-02-07T09:20:26.360Z,23.63
2023-02-07T09:22:53.992Z,26.87
2023-02-07T09:25:42.025Z,24.60
2023-02-07T09:31:21.183Z,29.70
2023-02-07T09:33:48.528Z,26.30
2023-02-07T09:36:20.372Z,23.47
2023-02-07T09:38:47.971Z,28.37
2023-02-07T09:41:36.849Z,27.30
2023-02-07T09:44:07.711Z,29.13
2023-02-07T09:46:38.488Z,31.07
2023-02-07T09:49:07.528Z,34.97
2023-02-07T09:51:35.320Z,31.00
2023-02-07T10:00:43.214Z,38.30
2023-02-07T10:06:24.143Z,32.93
2023-02-07T10:08:54.458Z,38.20
2023-02-07T10:11:27.690Z,37.20
2023-02-07T10:16:43.697Z,37.10
2023-02-07T10:19:17.543Z,30.83
2023-02-07T10:21:50.957Z,31.70
2023-02-07T10:24:24.135Z,31.07
2023-02-07T10:26:54.049Z,29.60
2023-02-07T10:33:13.222Z,27.30
2023-02-07T10:35:40.867Z,28.53
2023-02-07T10:38:13.234Z,34.40
2023-02-07T10:40:43.177Z,26.83
2023-02-07T10:43:12.647Z,25.60
2023-02-07T10:45:42.215Z,26.50
2023-02-07T10:50:51.699Z,28.40
2023-02-07T10:53:36.751Z,25.53
2023-02-07T10:56:14.432Z,22.90
2023-02-07T11:02:35.559Z,17.47
2023-02-07T11:05:03.743Z,19.10
2023-02-07T11:07:42.564Z,18.37
2023-02-07T11:10:15.726Z,21.13
2023-02-07T11:12:47.478Z,23.60
2023-02-07T11:15:17.132Z,17.33
2023-02-07T11:17:47.805Z,16.83
2023-02-07T11:20:19.188Z,23.63
2023-02-07T11:22:46.555Z,16.77
2023-02-07T11:25:13.803Z,18.37
2023-02-07T11:27:42.324Z,22.07
2023-02-07T11:30:16.854Z,16.87
2023-02-07T11:36:34.867Z,24.37
2023-02-07T11:39:02.212Z,24.50
2023-02-07T11:41:30.806Z,21.60
2023-02-07T11:43:59.341Z,18.47
2023-02-07T11:46:37.869Z,19.97
2023-02-07T11:49:06.758Z,21.57
2023-02-07T11:51:34.690Z,18.67
2023-02-07T11:54:03.955Z,19.23
2023-02-07T11:56:32.597Z,21.03
2023-02-07T11:59:00.122Z,22.17
2023-02-07T12:08:16.494Z,25.47
2023-02-07T12:10:46.568Z,23.27
2023-02-07T12:13:15.989Z,23.77
2023-02-07T12:15:46.508Z,23.63
2023-02-07T12:18:17.011Z,20.80
2023-02-07T12:26:15.847Z,28.00
2023-02-07T12:28:46.639Z,27.90
2023-02-07T12:35:04.033Z,22.97
2023-02-07T12:37:34.760Z,24.13
2023-02-07T12:40:11.129Z,22.70
2023-02-07T12:42:40.329Z,23.27
2023-02-07T12:45:10.681Z,21.80
2023-02-07T12:47:48.961Z,16.40
2023-02-07T12:53:14.495Z,25.47
2023-02-07T12:55:48.910Z,24.83
2023-02-07T12:58:24.159Z,22.10
2023-02-07T13:04:46.045Z,18.57
2023-02-07T13:07:19.569Z,22.97
2023-02-07T13:09:51.255Z,18.83
2023-02-07T13:12:25.160Z,20.43
2023-02-07T13:15:01.583Z,18.83
2023-02-07T13:17:34.487Z,19.77
2023-02-07T13:22:54.560Z,18.77
2023-02-07T13:25:23.276Z,14.17
2023-02-07T13:27:53.373Z,18.77
2023-02-07T13:30:21.540Z,14.33
2023-02-07T13:32:49.082Z,13.70
2023-02-07T13:42:07.291Z,16.90
2023-02-07T13:44:40.004Z,15.87
2023-02-07T13:47:15.613Z,16.27
2023-02-07T13:50:13.342Z,18.97
2023-02-07T13:52:43.669Z,17.43
2023-02-07T13:55:20.405Z,14.57
2023-02-07T13:57:47.722Z,17.00
2023-02-07T14:00:18.475Z,16.57
2023-02-07T14:02:47.749Z,16.67
2023-02-07T14:07:59.547Z,18.43
2023-02-07T14:10:39.551Z,15.30
2023-02-07T14:13:28.603Z,17.70
2023-02-07T14:16:05.367Z,14.90
2023-02-07T14:18:40.530Z,14.40
2023-02-07T14:28:23.238Z,13.00
2023-02-07T14:31:01.234Z,16.87
2023-02-07T14:33:35.268Z,14.63
2023-02-07T14:36:04.187Z,13.30
2023-02-07T14:38:33.524Z,12.77
2023-02-07T14:41:14.200Z,11.33
2023-02-07T14:43:43.801Z,11.37
2023-02-07T14:46:12.580Z,10.80
2023-02-07T14:48:47.043Z,11.73
2023-02-07T14:58:01.157Z,9.30
2023-02-07T15:00:30.513Z,12.53
2023-02-07T15:02:58.924Z,9.17
2023-02-07T15:05:28.709Z,10.03
2023-02-07T15:07:57.385Z,9.73
2023-02-07T15:13:14.724Z,11.90
2023-02-07T15:15:47.341Z,8.97
2023-02-07T15:18:16.080Z,6.57
2023-02-07T15:20:48.986Z,6.00
2023-02-07T15:23:16.518Z,8.27
2023-02-07T15:29:35.691Z,6.93
2023-02-07T15:32:12.724Z,8.03
2023-02-07T15:34:40.125Z,9.00
2023-02-07T15:37:14.536Z,8.87
2023-02-07T15:39:42.062Z,6.03
2023-02-07T15:42:15.944Z,8.30
2023-02-07T15:44:47.753Z,7.97
2023-02-07T15:47:30.752Z,8.57
2023-02-07T15:49:58.956Z,9.83
2023-02-07T15:52:29.477Z,12.80
2023-02-07T15:54:57.418Z,9.67
2023-02-07T15:57:26.639Z,9.57
2023-02-07T16:03:43.898Z,11.33
2023-02-07T16:06:13.931Z,9.40
2023-02-07T16:08:43.033Z,11.40
2023-02-07T16:11:15.181Z,11.60
2023-02-07T16:13:47.182Z,11.70
2023-02-07T16:16:22.543Z,14.03
2023-02-07T16:18:49.857Z,12.80
2023-02-07T16:21:19.121Z,13.50
2023-02-07T16:23:48.550Z,13.23
2023-02-07T16:26:17.034Z,13.60
2023-02-07T16:28:45.446Z,16.23
2023-02-07T16:31:12.915Z,14.70
2023-02-07T16:33:40.401Z,17.17
2023-02-07T16:36:11.635Z,13.07
2023-02-07T16:38:39.216Z,14.97
2023-02-07T16:41:08.325Z,15.80
2023-02-07T16:43:37.420Z,13.27
2023-02-07T16:46:05.584Z,14.47
2023-02-07T16:48:32.914Z,13.50
2023-02-07T16:51:00.242Z,15.07
2023-02-07T16:53:27.731Z,12.10
2023-02-07T16:55:56.276Z,15.80
2023-02-07T16:58:27.846Z,12.13
2023-02-07T17:00:56.050Z,11.43
2023-02-07T17:03:24.428Z,13.87
2023-02-07T17:05:51.754Z,11.10
2023-02-07T17:08:20.053Z,11.40
2023-02-07T17:10:48.664Z,13.30
2023-02-07T17:13:15.912Z,9.83
2023-02-07T17:15:44.819Z,10.43
2023-02-07T17:18:12.986Z,10.63
2023-02-07T17:20:41.100Z,11.80
2023-02-07T17:23:08.549Z,10.57
2023-02-07T17:25:35.784Z,13.37
2023-02-07T17:28:03.185Z,11.17
2023-02-07T17:30:33.788Z,12.33
2023-02-07T17:33:02.445Z,12.20
2023-02-07T17:35:29.754Z,11.17
2023-02-07T17:37:56.962Z,12.23
2023-02-07T17:40:26.922Z,11.33
2023-02-07T17:42:54.520Z,11.57
2023-02-07T17:45:21.966Z,11.37
2023-02-07T17:47:49.589Z,11.07
2023-02-07T17:50:19.312Z,11.33
2023-02-07T17:52:46.697Z,12.10
2023-02-07T17:55:14.090Z,10.90
2023-02-07T17:57:41.785Z,10.80
2023-02-07T18:00:14.056Z,10.23
2023-02-07T18:02:41.443Z,10.23
2023-02-07T18:05:09.520Z,11.70
2023-02-07T18:07:38.237Z,12.17
2023-02-07T18:10:06.445Z,13.27
2023-02-07T18:12:34.070Z,10.70
2023-02-07T18:15:01.452Z,11.13
2023-02-07T18:17:29.219Z,8.93
2023-02-07T18:19:56.495Z,10.80
2023-02-07T18:22:23.745Z,10.60
2023-02-07T18:24:52.493Z,11.70
2023-02-07T18:27:19.732Z,11.03
2023-02-07T18:29:47.054Z,13.00
2023-02-07T18:32:14.337Z,10.30
2023-02-07T18:34:41.764Z,9.67
2023-02-07T18:37:09.333Z,9.90
2023-02-07T18:39:36.602Z,12.80
2023-02-07T18:42:05.214Z,10.97
2023-02-07T18:44:34.932Z,10.80
2023-02-07T18:47:03.422Z,12.20
2023-02-07T18:49:30.613Z,9.47
2023-02-07T18:51:57.950Z,9.23
2023-02-07T18:54:25.155Z,12.83
2023-02-07T18:56:52.422Z,10.87
2023-02-07T18:59:21.424Z,11.03
2023-02-07T19:01:48.927Z,10.00
2023-02-07T19:04:16.692Z,10.37
2023-02-07T19:06:44.805Z,13.33
2023-02-07T19:09:12.685Z,9.23
2023-02-07T19:11:40.751Z,9.97
2023-02-07T19:14:11.435Z,11.90
2023-02-07T19:16:40.022Z,11.00
2023-02-07T19:19:07.281Z,10.80
2023-02-07T19:21:34.528Z,10.20
2023-02-07T19:24:04.396Z,10.57
2023-02-07T19:26:31.665Z,10.43
2023-02-07T19:28:59.539Z,15.50
2023-02-07T19:31:27.185Z,11.03
2023-02-07T19:33:56.678Z,9.90
2023-02-07T19:36:24.753Z,10.27
2023-02-07T19:38:52.389Z,10.93
2023-02-07T19:41:19.906Z,9.87
2023-02-07T19:43:47.376Z,10.33
2023-02-07T19:46:14.771Z,9.87
2023-02-07T19:48:42.067Z,9.70
2023-02-07T19:51:12.431Z,9.73
2023-02-07T19:53:39.695Z,10.70
2023-02-07T19:56:07.776Z,10.83
2023-02-07T19:58:36.198Z,9.17
2023-02-07T20:01:03.550Z,9.67
2023-02-07T20:03:30.838Z,11.23
2023-02-07T20:05:59.934Z,9.70
2023-02-07T20:08:28.571Z,11.77
2023-02-07T20:10:55.799Z,11.97
2023-02-07T20:13:23.059Z,11.83
2023-02-07T20:15:50.339Z,11.43
2023-02-07T20:18:17.577Z,11.63
2023-02-07T20:20:48.058Z,10.03
2023-02-07T20:23:15.657Z,11.27
2023-02-07T20:25:44.279Z,11.07
2023-02-07T20:28:11.546Z,11.37
2023-02-07T20:30:43.950Z,11.43
2023-02-07T20:36:01.030Z,13.10
2023-02-07T20:38:28.520Z,11.83
2023-02-07T20:40:57.417Z,10.67
2023-02-07T20:43:24.717Z,13.93
2023-02-07T20:45:51.962Z,12.03
2023-02-07T20:48:37.275Z,10.93
2023-02-07T20:51:27.077Z,10.20
2023-02-07T20:54:07.412Z,11.87
2023-02-07T20:56:36.096Z,12.70
2023-02-07T20:59:04.897Z,10.23
2023-02-07T21:01:33.532Z,13.10
2023-02-07T21:04:01.683Z,11.10
2023-02-07T21:06:29.311Z,12.73
2023-02-07T21:08:57.670Z,12.37
2023-02-07T21:11:25.031Z,12.13
2023-02-07T21:13:54.346Z,13.00
2023-02-07T21:16:21.814Z,12.27
2023-02-07T21:18:49.242Z,12.33
2023-02-07T21:21:16.538Z,12.13
2023-02-07T21:23:43.848Z,14.93
2023-02-07T21:26:15.252Z,15.03
2023-02-07T21:28:45.959Z,11.83
2023-02-07T21:39:28.590Z,13.27
2023-02-07T21:41:56.141Z,16.27
2023-02-07T21:44:23.620Z,15.87
2023-02-07T21:46:50.840Z,13.93
2023-02-07T21:49:18.740Z,12.07
2023-02-07T21:51:46.651Z,13.83
2023-02-07T21:57:30.415Z,14.97
2023-02-07T21:59:57.689Z,14.87
2023-02-07T22:02:24.924Z,12.90
2023-02-07T22:04:52.240Z,13.43
2023-02-07T22:07:19.480Z,15.53
2023-02-07T22:09:46.734Z,15.07
2023-02-07T22:12:14.014Z,14.77
2023-02-07T22:14:42.802Z,14.23
2023-02-07T22:19:54.829Z,15.53
2023-02-07T22:22:22.076Z,15.17
2023-02-07T22:24:49.413Z,13.83
2023-02-07T22:27:22.324Z,12.30
2023-02-07T22:29:50.974Z,15.60
2023-02-07T22:32:18.266Z,14.23
2023-02-07T22:34:45.518Z,15.00
2023-02-07T22:37:12.730Z,15.53
2023-02-07T22:39:39.994Z,13.17
2023-02-07T22:42:07.286Z,14.23
2023-02-07T22:44:34.600Z,15.23
2023-02-07T22:47:05.551Z,17.90
2023-02-07T22:49:37.629Z,17.13
2023-02-07T22:52:05.205Z,14.53
2023-02-07T22:54:32.431Z,13.97
2023-02-07T22:56:59.687Z,14.87
2023-02-07T22:59:32.017Z,15.63
2023-02-07T23:01:59.269Z,15.23
2023-02-07T23:04:27.875Z,16.67
2023-02-07T23:06:55.124Z,15.13
2023-02-07T23:09:34.684Z,13.60
2023-02-07T23:12:13.975Z,14.27
2023-02-07T23:14:41.427Z,14.67
2023-02-07T23:17:08.951Z,13.67
2023-02-07T23:19:37.609Z,12.93
2023-02-07T23:22:04.917Z,12.57
2023-02-07T23:24:32.147Z,13.60
2023-02-07T23:29:54.080Z,14.90
2023-02-07T23:32:21.364Z,12.40
2023-02-07T23:34:49.973Z,14.83
2023-02-07T23:37:17.262Z,15.40
2023-02-07T23:39:45.257Z,15.70
2023-02-07T23:49:22.573Z,15.00
2023-02-07T23:51:51.347Z,14.43
2023-02-07T23:54:18.542Z,15.07
2023-02-07T23:56:45.860Z,15.97
2023-02-07T23:59:13.318Z,19.20
